Observation data for Memphis on 12/10/2018      Previous  Date       Current Mesonet Observations  Soil Data  Daily Summary Page  Observations in Plain Language
KMES 100600Z 26003KT M01/M05 A3035 RMK A01 T10121049  RH  076%=      5-min Rain = 0
KMES 100605Z 26002KT M01/M05 A3035 RMK A01 T10131053  RH  074%=      5-min Rain = 0
KMES 100610Z 31003KT M02/M06 A3036 RMK A01 T10181057  RH  075%=      5-min Rain = 0
KMES 100615Z 30002KT M02/M06 A3035 RMK A01 T10201057  RH  076%=      5-min Rain = 0
KMES 100620Z 28000KT M02/M05 A3035 RMK A01 T10151051  RH  077%=      5-min Rain = 0
KMES 100625Z 00000KT M02/M06 A3035 RMK A01 T10191059  RH  074%=      5-min Rain = 0
KMES 100630Z 00000KT M02/M06 A3035 RMK A01 T10231059  RH  076%=      5-min Rain = 0
KMES 100635Z 28000KT M02/M06 A3035 RMK A01 T10241060  RH  077%=      5-min Rain = 0
KMES 100640Z 30001KT M03/M06 A3035 RMK A01 T10271062  RH  077%=      5-min Rain = 0
KMES 100645Z 29002KT M03/M06 A3034 RMK A01 T10301063  RH  078%=      5-min Rain = 0
KMES 100650Z 29001KT M03/M06 A3034 RMK A01 T10321064  RH  079%=      5-min Rain = 0
KMES 100655Z 28000KT M03/M06 A3034 RMK A01 T10311060  RH  080%=      5-min Rain = 0
KMES 100700Z 29001KT M03/M06 A3033 RMK A01 T10311062  RH  079%=      5-min Rain = 0
KMES 100705Z 29003KT M03/M06 A3033 RMK A01 T10341063  RH  080%=      5-min Rain = 0
KMES 100710Z 28003KT M03/M06 A3033 RMK A01 T10321061  RH  081%=      5-min Rain = 0
KMES 100715Z 27002KT M03/M06 A3032 RMK A01 T10341062  RH  081%=      5-min Rain = 0
KMES 100720Z 29002KT M03/M06 A3032 RMK A01 T10331061  RH  081%=      5-min Rain = 0
KMES 100725Z 30003KT M03/M06 A3032 RMK A01 T10331061  RH  081%=      5-min Rain = 0
KMES 100730Z 29004KT M03/M06 A3032 RMK A01 T10321061  RH  081%=      5-min Rain = 0
KMES 100735Z 27004KT M03/M06 A3032 RMK A01 T10311058  RH  082%=      5-min Rain = 0
KMES 100740Z 28004KT M02/M06 A3032 RMK A01 T10211055  RH  078%=      5-min Rain = 0
KMES 100745Z 28001KT M03/M07 A3032 RMK A01 T10311065  RH  077%=      5-min Rain = 0
KMES 100750Z 18002KT M03/M06 A3032 RMK A01 T10291060  RH  079%=      5-min Rain = 0
KMES 100755Z 19001KT M03/M06 A3032 RMK A01 T10261060  RH  078%=      5-min Rain = 0
KMES 100800Z 21000KT M03/M07 A3032 RMK A01 T10311066  RH  077%=      5-min Rain = 0
KMES 100805Z 00000KT M04/M07 A3032 RMK A01 T10351068  RH  078%=      5-min Rain = 0
KMES 100810Z 00000KT M04/M07 A3032 RMK A01 T10381068  RH  080%=      5-min Rain = 0
KMES 100815Z 02003KT M04/M07 A3032 RMK A01 T10401070  RH  080%=      5-min Rain = 0
KMES 100820Z 02000KT M04/M07 A3032 RMK A01 T10441071  RH  081%=      5-min Rain = 0
KMES 100825Z 00000KT M04/M07 A3032 RMK A01 T10401065  RH  083%=      5-min Rain = 0
KMES 100830Z 00000KT M04/M06 A3032 RMK A01 T10371063  RH  082%=      5-min Rain = 0
KMES 100835Z 00000KT M04/M07 A3031 RMK A01 T10381066  RH  081%=      5-min Rain = 0
KMES 100840Z 01000KT M04/M07 A3031 RMK A01 T10411068  RH  081%=      5-min Rain = 0
KMES 100845Z 00000KT M05/M07 A3031 RMK A01 T10451072  RH  082%=      5-min Rain = 0
KMES 100850Z 35002KT M05/M07 A3031 RMK A01 T10451069  RH  083%=      5-min Rain = 0
KMES 100855Z 34003KT M04/M07 A3032 RMK A01 T10431067  RH  083%=      5-min Rain = 0
KMES 100900Z 33003KT M04/M07 A3032 RMK A01 T10421067  RH  082%=      5-min Rain = 0
KMES 100905Z 33003KT M05/M07 A3032 RMK A01 T10451071  RH  082%=      5-min Rain = 0
KMES 100910Z 33003KT M04/M06 A3032 RMK A01 T10411064  RH  084%=      5-min Rain = 0
KMES 100915Z 33003KT M04/M07 A3032 RMK A01 T10381066  RH  081%=      5-min Rain = 0
KMES 100920Z 32003KT M04/M07 A3032 RMK A01 T10391066  RH  081%=      5-min Rain = 0
KMES 100925Z 30000KT M04/M07 A3031 RMK A01 T10391067  RH  081%=      5-min Rain = 0
KMES 100930Z 32001KT M04/M07 A3031 RMK A01 T10421071  RH  081%=      5-min Rain = 0
KMES 100935Z 32002KT M04/M07 A3031 RMK A01 T10441070  RH  082%=      5-min Rain = 0
KMES 100940Z 33002KT M04/M07 A3031 RMK A01 T10431070  RH  082%=      5-min Rain = 0
KMES 100945Z 35002KT M05/M07 A3031 RMK A01 T10461074  RH  081%=      5-min Rain = 0
KMES 100950Z 33001KT M05/M08 A3031 RMK A01 T10511077  RH  082%=      5-min Rain = 0
KMES 100955Z 32000KT M05/M08 A3031 RMK A01 T10531076  RH  084%=      5-min Rain = 0
KMES 101000Z 33003KT M05/M08 A3031 RMK A01 T10541077  RH  084%=      5-min Rain = 0
KMES 101005Z 32002KT M06/M08 A3031 RMK A01 T10551078  RH  084%=      5-min Rain = 0
KMES 101010Z 32001KT M05/M07 A3031 RMK A01 T10531074  RH  085%=      5-min Rain = 0
KMES 101015Z 33002KT M05/M07 A3031 RMK A01 T10521074  RH  085%=      5-min Rain = 0
KMES 101020Z 33003KT M05/M07 A3031 RMK A01 T10501070  RH  086%=      5-min Rain = 0
KMES 101025Z 31003KT M05/M07 A3031 RMK A01 T10461067  RH  085%=      5-min Rain = 0
KMES 101030Z 29004KT M05/M07 A303 RMK A01 T10471071  RH  084%=      5-min Rain = 0
KMES 101035Z 30003KT M04/M07 A303 RMK A01 T10431067  RH  084%=      5-min Rain = 0
KMES 101040Z 25002KT M04/M06 A303 RMK A01 T10371064  RH  082%=      5-min Rain = 0
KMES 101045Z 21005KT M04/M07 A303 RMK A01 T10351065  RH  080%=      5-min Rain = 0
KMES 101050Z 22006KT M03/M06 A303 RMK A01 T10341064  RH  080%=      5-min Rain = 0
KMES 101055Z 23005KT M03/M06 A303 RMK A01 T10301062  RH  079%=      5-min Rain = 0
KMES 101100Z 25004KT M03/M06 A303 RMK A01 T10271060  RH  078%=      5-min Rain = 0
KMES 101105Z 26003KT M02/M06 A303 RMK A01 T10231059  RH  077%=      5-min Rain = 0
KMES 101110Z 24001KT M03/M06 A303 RMK A01 T10251063  RH  075%=      5-min Rain = 0
KMES 101115Z 30000KT M03/M06 A303 RMK A01 T10291064  RH  076%=      5-min Rain = 0
KMES 101120Z 28001KT M04/M07 A303 RMK A01 T10351070  RH  077%=      5-min Rain = 0
KMES 101125Z 30001KT M04/M07 A303 RMK A01 T10391072  RH  078%=      5-min Rain = 0
KMES 101130Z 00000KT M05/M08 A303 RMK A01 T10471077  RH  080%=      5-min Rain = 0
KMES 101135Z 00000KT M05/M07 A303 RMK A01 T10461073  RH  082%=      5-min Rain = 0
KMES 101140Z 00000KT M05/M07 A303 RMK A01 T10461073  RH  082%=      5-min Rain = 0
KMES 101145Z 00000KT M05/M07 A303 RMK A01 T10481073  RH  083%=      5-min Rain = 0
KMES 101150Z 00000KT M05/M07 A303 RMK A01 T10491074  RH  083%=      5-min Rain = 0
KMES 101155Z 00000KT M05/M08 A303 RMK A01 T10511075  RH  083%=      5-min Rain = 0
KMES 101200Z 00000KT M05/M07 A3031 RMK A01 T10511074  RH  084%=      5-min Rain = 0
KMES 101205Z 22003KT M04/M06 A3031 RMK A01 T10431064  RH  086%=      5-min Rain = 0
KMES 101210Z 22004KT M04/M06 A3031 RMK A01 T10371060  RH  084%=      5-min Rain = 0
KMES 101215Z 23005KT M04/M07 A3031 RMK A01 T10381065  RH  082%=      5-min Rain = 0
KMES 101220Z 25005KT M04/M06 A3031 RMK A01 T10361062  RH  083%=      5-min Rain = 0
KMES 101225Z 27003KT M03/M05 A3031 RMK A01 T10261054  RH  081%=      5-min Rain = 0
KMES 101230Z 30000KT M03/M07 A3031 RMK A01 T10291066  RH  076%=      5-min Rain = 0
KMES 101235Z 00000KT M04/M07 A3031 RMK A01 T10381073  RH  077%=      5-min Rain = 0
KMES 101240Z 31000KT M04/M07 A3031 RMK A01 T10431073  RH  080%=      5-min Rain = 0
KMES 101245Z 30002KT M04/M07 A3032 RMK A01 T10421069  RH  082%=      5-min Rain = 0
KMES 101250Z 30002KT M04/M07 A3032 RMK A01 T10411068  RH  081%=      5-min Rain = 0
KMES 101255Z 30000KT M04/M07 A3032 RMK A01 T10421069  RH  081%=      5-min Rain = 0
KMES 101300Z 00000KT M05/M07 A3032 RMK A01 T10451072  RH  081%=      5-min Rain = 0
KMES 101305Z 00000KT M05/M07 A3033 RMK A01 T10471074  RH  082%=      5-min Rain = 0
KMES 101310Z 01002KT M05/M07 A3033 RMK A01 T10491074  RH  082%=      5-min Rain = 0
KMES 101315Z 01000KT M05/M08 A3033 RMK A01 T10501075  RH  083%=      5-min Rain = 0
KMES 101320Z 30000KT M04/M06 A3033 RMK A01 T10421063  RH  085%=      5-min Rain = 0
KMES 101325Z 31004KT M03/M06 A3033 RMK A01 T10311055  RH  084%=      5-min Rain = 0
KMES 101330Z 32001KT M02/M06 A3033 RMK A01 T10231057  RH  078%=      5-min Rain = 0
KMES 101335Z 21000KT M02/M06 A3033 RMK A01 T10231059  RH  077%=      5-min Rain = 0
KMES 101340Z 21000KT M02/M06 A3033 RMK A01 T10221060  RH  075%=      5-min Rain = 0
KMES 101345Z 22001KT M02/M06 A3033 RMK A01 T10221060  RH  075%=      5-min Rain = 0
KMES 101350Z 24003KT M01/M06 A3033 RMK A01 T10111056  RH  072%=      5-min Rain = 0
KMES 101355Z 25004KT M01/M06 A3033 RMK A01 T10071058  RH  068%=      5-min Rain = 0
KMES 101400Z 24003KT M01/M06 A3033 RMK A01 T10081060  RH  068%=      5-min Rain = 0
KMES 101405Z 24002KT M01/M06 A3034 RMK A01 T10071058  RH  068%=      5-min Rain = 0
KMES 101410Z 25000KT M02/M07 A3034 RMK A01 T10161065  RH  069%=      5-min Rain = 0
KMES 101415Z 05000KT M03/M07 A3034 RMK A01 T10251068  RH  073%=      5-min Rain = 0
KMES 101420Z 06004KT M03/M06 A3034 RMK A01 T10251059  RH  078%=      5-min Rain = 0
KMES 101425Z 08004KT M02/M06 A3034 RMK A01 T10231055  RH  078%=      5-min Rain = 0
KMES 101430Z 05004KT M02/M05 A3035 RMK A01 T10171052  RH  077%=      5-min Rain = 0
KMES 101435Z 04004KT M01/M04 A3035 RMK A01 T10091044  RH  077%=      5-min Rain = 0
KMES 101440Z 02004KT 01/M04 A3035 RMK A01 T00061040  RH  072%=      5-min Rain = 0
KMES 101445Z 02005KT 02/M04 A3036 RMK A01 T00181044  RH  063%=      5-min Rain = 0
KMES 101450Z 06003KT 02/M04 A3036 RMK A01 T00231041  RH  063%=      5-min Rain = 0
KMES 101455Z 03003KT 02/M04 A3036 RMK A01 T00211039  RH  065%=      5-min Rain = 0
KMES 101500Z 36003KT 03/M04 A3036 RMK A01 T00261044  RH  060%=      5-min Rain = 0
KMES 101505Z 34004KT 03/M05 A3036 RMK A01 T00301045  RH  058%=      5-min Rain = 0
KMES 101510Z 01003KT 03/M05 A3037 RMK A01 T00331045  RH  057%=      5-min Rain = 0
KMES 101515Z 01003KT 04/M05 A3037 RMK A01 T00361046  RH  055%=      5-min Rain = 0
KMES 101520Z 36002KT 04/M05 A3037 RMK A01 T00391045  RH  055%=      5-min Rain = 0
KMES 101525Z 36002KT 04/M05 A3037 RMK A01 T00411045  RH  054%=      5-min Rain = 0
KMES 101530Z 36000KT 04/M04 A3037 RMK A01 T00431042  RH  054%=      5-min Rain = 0
KMES 101535Z 35002KT 05/M05 A3037 RMK A01 T00451046  RH  052%=      5-min Rain = 0
KMES 101540Z 33000KT 05/M05 A3037 RMK A01 T00471045  RH  052%=      5-min Rain = 0
KMES 101545Z 18000KT 05/M04 A3038 RMK A01 T00501044  RH  051%=      5-min Rain = 0
KMES 101550Z 13002KT 05/M04 A3038 RMK A01 T00541042  RH  050%=      5-min Rain = 0
KMES 101555Z 12003KT 05/M04 A3037 RMK A01 T00541041  RH  051%=      5-min Rain = 0
KMES 101600Z 14003KT 06/M04 A3037 RMK A01 T00551043  RH  049%=      5-min Rain = 0
KMES 101605Z 16001KT 06/M04 A3037 RMK A01 T00591040  RH  049%=      5-min Rain = 0
KMES 101610Z 15001KT 07/M04 A3038 RMK A01 T00661040  RH  047%=      5-min Rain = 0
KMES 101615Z 04002KT 07/M04 A3038 RMK A01 T00701044  RH  044%=      5-min Rain = 0
KMES 101620Z 00001KT 07/M04 A3038 RMK A01 T00711040  RH  045%=      5-min Rain = 0
KMES 101625Z 35004KT 08/M05 A3038 RMK A01 T00761045  RH  042%=      5-min Rain = 0
KMES 101630Z 35005KT 08/M05 A3037 RMK A01 T00791050  RH  040%=      5-min Rain = 0
KMES 101635Z 36004KT 08/M05 A3037 RMK A01 T00811050  RH  039%=      5-min Rain = 0
KMES 101640Z 01004KT 08/M05 A3037 RMK A01 T00811051  RH  039%=      5-min Rain = 0
KMES 101645Z 02004KT 08/M05 A3037 RMK A01 T00831052  RH  038%=      5-min Rain = 0
KMES 101650Z 03005KT 09/M05 A3037 RMK A01 T00851052  RH  038%=      5-min Rain = 0
KMES 101655Z 04004KT 09/M05 A3037 RMK A01 T00861052  RH  037%=      5-min Rain = 0
KMES 101700Z 04005KT 09/M06 A3037 RMK A01 T00871055  RH  036%=      5-min Rain = 0
KMES 101705Z 04003KT 09/M05 A3037 RMK A01 T00871053  RH  037%=      5-min Rain = 0
KMES 101710Z 04003KT 09/M05 A3037 RMK A01 T00881054  RH  036%=      5-min Rain = 0
KMES 101715Z 04002KT 09/M05 A3036 RMK A01 T00901049  RH  037%=      5-min Rain = 0
KMES 101720Z 05002KT 09/M05 A3036 RMK A01 T00921052  RH  036%=      5-min Rain = 0
KMES 101725Z 04001KT 10/M05 A3036 RMK A01 T00951050  RH  036%=      5-min Rain = 0
KMES 101730Z 08001KT 10/M05 A3036 RMK A01 T00991054  RH  034%=      5-min Rain = 0
KMES 101735Z 10004KT 10/M05 A3036 RMK A01 T01041054  RH  032%=      5-min Rain = 0
KMES 101740Z 07003KT 10/M06 A3036 RMK A01 T01011058  RH  032%=      5-min Rain = 0
KMES 101745Z 14002KT 10/M06 A3035 RMK A01 T01021058  RH  032%=      5-min Rain = 0
KMES 101750Z 07003KT 11/M06 A3035 RMK A01 T01051059  RH  031%=      5-min Rain = 0
KMES 101755Z 06004KT 11/M06 A3034 RMK A01 T01051057  RH  032%=      5-min Rain = 0
KMES 101800Z 11001KT 11/M06 A3034 RMK A01 T01051059  RH  031%=      5-min Rain = 0
KMES 101805Z 15001KT 11/M06 A3034 RMK A01 T01061061  RH  030%=      5-min Rain = 0
KMES 101810Z 10002KT 11/M06 A3034 RMK A01 T01071058  RH  031%=      5-min Rain = 0
KMES 101815Z 10002KT 11/M06 A3033 RMK A01 T01081057  RH  031%=      5-min Rain = 0
KMES 101820Z 07002KT 11/M06 A3033 RMK A01 T01071061  RH  030%=      5-min Rain = 0
KMES 101825Z 03003KT 11/M06 A3033 RMK A01 T01061061  RH  030%=      5-min Rain = 0
KMES 101830Z 03000KT 11/M06 A3032 RMK A01 T01071061  RH  030%=      5-min Rain = 0
KMES 101835Z 10001KT 11/M06 A3032 RMK A01 T01101059  RH  030%=      5-min Rain = 0
KMES 101840Z 13002KT 11/M06 A3032 RMK A01 T01141058  RH  030%=      5-min Rain = 0
KMES 101845Z 12004KT 11/M06 A3031 RMK A01 T01131059  RH  029%=      5-min Rain = 0
KMES 101850Z 14003KT 11/M06 A3031 RMK A01 T01131058  RH  030%=      5-min Rain = 0
KMES 101855Z 14002KT 12/M06 A3031 RMK A01 T01171057  RH  029%=      5-min Rain = 0
KMES 101900Z 12001KT 12/M06 A3031 RMK A01 T01191059  RH  028%=      5-min Rain = 0
KMES 101905Z 16003KT 12/M06 A3031 RMK A01 T01181058  RH  029%=      5-min Rain = 0
KMES 101910Z 15003KT 12/M06 A3031 RMK A01 T01211055  RH  029%=      5-min Rain = 0
KMES 101915Z 14005KT 12/M06 A303 RMK A01 T01211056  RH  029%=      5-min Rain = 0
KMES 101920Z 14003KT 12/M06 A303 RMK A01 T01191058  RH  029%=      5-min Rain = 0
KMES 101925Z 14004KT 12/M06 A303 RMK A01 T01201056  RH  029%=      5-min Rain = 0
KMES 101930Z 12005KT 12/M06 A303 RMK A01 T01191056  RH  029%=      5-min Rain = 0
KMES 101935Z 09005KT 12/M06 A3029 RMK A01 T01181057  RH  029%=      5-min Rain = 0
KMES 101940Z 09003KT 12/M06 A3029 RMK A01 T01161058  RH  029%=      5-min Rain = 0
KMES 101945Z 17003KT 12/M06 A3029 RMK A01 T01191058  RH  029%=      5-min Rain = 0
KMES 101950Z 18001KT 12/M06 A3029 RMK A01 T01231059  RH  028%=      5-min Rain = 0
KMES 101955Z 15004KT 12/M06 A3029 RMK A01 T01241057  RH  028%=      5-min Rain = 0
KMES 102000Z 12005KT 12/M06 A3029 RMK A01 T01221057  RH  028%=      5-min Rain = 0
KMES 102005Z 13005KT 12/M06 A3028 RMK A01 T01211057  RH  028%=      5-min Rain = 0
KMES 102010Z 11005KT 12/M06 A3028 RMK A01 T01211059  RH  028%=      5-min Rain = 0
KMES 102015Z 15003KT 12/M06 A3028 RMK A01 T01211059  RH  028%=      5-min Rain = 0
KMES 102020Z 17001KT 12/M06 A3028 RMK A01 T01241060  RH  027%=      5-min Rain = 0
KMES 102025Z 16002KT 13/M06 A3028 RMK A01 T01281058  RH  027%=      5-min Rain = 0
KMES 102030Z 14002KT 13/M06 A3028 RMK A01 T01261059  RH  027%=      5-min Rain = 0
KMES 102035Z 16003KT 13/M06 A3028 RMK A01 T01271057  RH  027%=      5-min Rain = 0
KMES 102040Z 14005KT 13/M05 A3028 RMK A01 T01271049  RH  029%=      5-min Rain = 0
KMES 102045Z 13009KT 12/M04 A3028 RMK A01 T01231044  RH  031%=      5-min Rain = 0
KMES 102050Z 15007KT 12/M04 A3028 RMK A01 T01231044  RH  031%=      5-min Rain = 0
KMES 102055Z 15006KT 12/M05 A3028 RMK A01 T01231046  RH  031%=      5-min Rain = 0
KMES 102100Z 14007KT 12/M05 A3028 RMK A01 T01231045  RH  031%=      5-min Rain = 0
KMES 102105Z 14007KT 12/M05 A3028 RMK A01 T01211047  RH  031%=      5-min Rain = 0
KMES 102110Z 13005KT 12/M05 A3028 RMK A01 T01221048  RH  030%=      5-min Rain = 0
KMES 102115Z 14004KT 12/M05 A3028 RMK A01 T01231049  RH  030%=      5-min Rain = 0
KMES 102120Z 13004KT 12/M05 A3028 RMK A01 T01221051  RH  030%=      5-min Rain = 0
KMES 102125Z 13004KT 12/M05 A3028 RMK A01 T01231052  RH  029%=      5-min Rain = 0
KMES 102130Z 13003KT 12/M05 A3027 RMK A01 T01231049  RH  030%=      5-min Rain = 0
KMES 102135Z 13006KT 12/M05 A3027 RMK A01 T01241046  RH  030%=      5-min Rain = 0
KMES 102140Z 14006KT 12/M05 A3027 RMK A01 T01231046  RH  030%=      5-min Rain = 0
KMES 102145Z 12006KT 12/M05 A3027 RMK A01 T01231047  RH  030%=      5-min Rain = 0
KMES 102150Z 13006KT 12/M05 A3027 RMK A01 T01231047  RH  030%=      5-min Rain = 0
KMES 102155Z 14006KT 12/M05 A3028 RMK A01 T01221045  RH  031%=      5-min Rain = 0
KMES 102200Z 14006KT 12/M05 A3028 RMK A01 T01221045  RH  031%=      5-min Rain = 0
KMES 102205Z 13006KT 12/M05 A3027 RMK A01 T01211046  RH  031%=      5-min Rain = 0
KMES 102210Z 12005KT 12/M05 A3027 RMK A01 T01211047  RH  031%=      5-min Rain = 0
KMES 102215Z 12006KT 12/M05 A3027 RMK A01 T01201048  RH  031%=      5-min Rain = 0
KMES 102220Z 13006KT 12/M05 A3027 RMK A01 T01191048  RH  031%=      5-min Rain = 0
KMES 102225Z 13006KT 12/M05 A3027 RMK A01 T01191048  RH  031%=      5-min Rain = 0
KMES 102230Z 13006KT 12/M05 A3027 RMK A01 T01181049  RH  031%=      5-min Rain = 0
KMES 102235Z 13006KT 12/M05 A3027 RMK A01 T01171049  RH  031%=      5-min Rain = 0
KMES 102240Z 13006KT 12/M05 A3027 RMK A01 T01161050  RH  031%=      5-min Rain = 0
KMES 102245Z 13005KT 12/M05 A3027 RMK A01 T01151050  RH  031%=      5-min Rain = 0
KMES 102250Z 13005KT 11/M05 A3027 RMK A01 T01131049  RH  032%=      5-min Rain = 0
KMES 102255Z 13005KT 11/M05 A3027 RMK A01 T01101048  RH  033%=      5-min Rain = 0
KMES 102300Z 13005KT 11/M05 A3027 RMK A01 T01081048  RH  033%=      5-min Rain = 0
KMES 102305Z 13005KT 11/M05 A3027 RMK A01 T01051047  RH  034%=      5-min Rain = 0
KMES 102310Z 12005KT 10/M05 A3027 RMK A01 T01001046  RH  035%=      5-min Rain = 0
KMES 102315Z 12006KT 10/M05 A3027 RMK A01 T00951045  RH  037%=      5-min Rain = 0
KMES 102320Z 12006KT 09/M04 A3027 RMK A01 T00901044  RH  039%=      5-min Rain = 0
KMES 102325Z 13005KT 09/M04 A3027 RMK A01 T00861043  RH  040%=      5-min Rain = 0
KMES 102330Z 12005KT 08/M04 A3027 RMK A01 T00821042  RH  041%=      5-min Rain = 0
KMES 102335Z 11005KT 08/M04 A3027 RMK A01 T00801042  RH  042%=      5-min Rain = 0
KMES 102340Z 11005KT 08/M04 A3027 RMK A01 T00791043  RH  042%=      5-min Rain = 0
KMES 102345Z 12005KT 08/M04 A3027 RMK A01 T00771042  RH  043%=      5-min Rain = 0
KMES 102350Z 12005KT 07/M04 A3027 RMK A01 T00721041  RH  045%=      5-min Rain = 0
KMES 102355Z 12005KT 07/M04 A3027 RMK A01 T00691040  RH  046%=      5-min Rain = 0
KMES 110000Z 13005KT 07/M04 A3027 RMK A01 T00681040  RH  046%=      5-min Rain = 0
KMES 110005Z 12005KT 07/M04 A3028 RMK A01 T00671041  RH  046%=      5-min Rain = 0
KMES 110010Z 12005KT 06/M04 A3028 RMK A01 T00631041  RH  048%=      5-min Rain = 0
KMES 110015Z 12005KT 06/M04 A3028 RMK A01 T00601039  RH  049%=      5-min Rain = 0
KMES 110020Z 12004KT 06/M04 A3028 RMK A01 T00591039  RH  050%=      5-min Rain = 0
KMES 110025Z 12003KT 06/M04 A3028 RMK A01 T00581038  RH  050%=      5-min Rain = 0
KMES 110030Z 13002KT 06/M04 A3028 RMK A01 T00571039  RH  050%=      5-min Rain = 0
KMES 110035Z 14002KT 06/M04 A3028 RMK A01 T00561039  RH  051%=      5-min Rain = 0
KMES 110040Z 15002KT 06/M04 A3028 RMK A01 T00571037  RH  051%=      5-min Rain = 0
KMES 110045Z 15003KT 06/M04 A3028 RMK A01 T00601037  RH  050%=      5-min Rain = 0
KMES 110050Z 16003KT 06/M04 A3028 RMK A01 T00621036  RH  050%=      5-min Rain = 0
KMES 110055Z 15004KT 06/M04 A3028 RMK A01 T00641035  RH  050%=      5-min Rain = 0
KMES 110100Z 15001KT 06/M04 A3028 RMK A01 T00621037  RH  049%=      5-min Rain = 0
KMES 110105Z 16001KT 06/M04 A3028 RMK A01 T00571039  RH  050%=      5-min Rain = 0
KMES 110110Z 16002KT 05/M04 A3028 RMK A01 T00521038  RH  052%=      5-min Rain = 0
KMES 110115Z 17002KT 05/M04 A3028 RMK A01 T00521035  RH  054%=      5-min Rain = 0
KMES 110120Z 17000KT 05/M04 A3028 RMK A01 T00501037  RH  053%=      5-min Rain = 0
KMES 110125Z 00000KT 04/M04 A3028 RMK A01 T00441038  RH  055%=      5-min Rain = 0
KMES 110130Z 00000KT 04/M04 A3028 RMK A01 T00351040  RH  058%=      5-min Rain = 0
KMES 110135Z 00000KT 03/M04 A3028 RMK A01 T00301040  RH  060%=      5-min Rain = 0
KMES 110140Z 00000KT 02/M05 A3028 RMK A01 T00231046  RH  061%=      5-min Rain = 0
KMES 110145Z 00000KT 02/M05 A3027 RMK A01 T00151049  RH  062%=      5-min Rain = 0
KMES 110150Z 00000KT 02/M04 A3027 RMK A01 T00171041  RH  066%=      5-min Rain = 0
KMES 110155Z 00000KT 02/M04 A3027 RMK A01 T00191040  RH  065%=      5-min Rain = 0
KMES 110200Z 00000KT 02/M04 A3028 RMK A01 T00211035  RH  066%=      5-min Rain = 0
KMES 110205Z 00000KT 03/M03 A3028 RMK A01 T00291031  RH  065%=      5-min Rain = 0
KMES 110210Z 00000KT 03/M03 A3028 RMK A01 T00301033  RH  063%=      5-min Rain = 0
KMES 110215Z 15000KT 03/M04 A3028 RMK A01 T00261037  RH  063%=      5-min Rain = 0
KMES 110220Z 15000KT 02/M04 A3028 RMK A01 T00191042  RH  064%=      5-min Rain = 0
KMES 110225Z 13002KT 01/M05 A3028 RMK A01 T00111047  RH  066%=      5-min Rain = 0
KMES 110230Z 12002KT 00/M05 A3028 RMK A01 T00031049  RH  068%=      5-min Rain = 0
KMES 110235Z 13002KT 00/05 A3028 RMK A01 T00000-49  RH  070%=      5-min Rain = 0
KMES 110240Z 13000KT M00/M05 A3028 RMK A01 T10011049  RH  070%=      5-min Rain = 0
KMES 110245Z 00000KT M00/M05 A3028 RMK A01 T10041052  RH  070%=      5-min Rain = 0
KMES 110250Z 00000KT M01/M05 A3028 RMK A01 T10061050  RH  072%=      5-min Rain = 0
KMES 110255Z 03000KT M00/M04 A3027 RMK A01 T10011041  RH  075%=      5-min Rain = 0
KMES 110300Z 00000KT 00/04 A3027 RMK A01 T00000-42  RH  074%=      5-min Rain = 0
KMES 110305Z 00000KT M00/M04 A3028 RMK A01 T10021043  RH  074%=      5-min Rain = 0
KMES 110310Z 29000KT M00/M04 A3028 RMK A01 T10021042  RH  075%=      5-min Rain = 0
KMES 110315Z 29000KT M00/M04 A3028 RMK A01 T10031043  RH  075%=      5-min Rain = 0
KMES 110320Z 00000KT M01/M05 A3028 RMK A01 T10061048  RH  074%=      5-min Rain = 0
KMES 110325Z 00000KT M01/M05 A3028 RMK A01 T10111049  RH  076%=      5-min Rain = 0
KMES 110330Z 00000KT M01/M05 A3028 RMK A01 T10121048  RH  077%=      5-min Rain = 0
KMES 110335Z 00000KT M01/M05 A3028 RMK A01 T10121047  RH  077%=      5-min Rain = 0
KMES 110340Z 00000KT M01/M05 A3028 RMK A01 T10131048  RH  077%=      5-min Rain = 0
KMES 110345Z 00000KT M01/M05 A3028 RMK A01 T10141048  RH  078%=      5-min Rain = 0
KMES 110350Z 00000KT M02/M05 A3028 RMK A01 T10161050  RH  078%=      5-min Rain = 0
KMES 110355Z 00000KT M02/M05 A3028 RMK A01 T10151047  RH  079%=      5-min Rain = 0
KMES 110400Z 00000KT M01/M05 A3029 RMK A01 T10141048  RH  078%=      5-min Rain = 0
KMES 110405Z 00000KT M02/M05 A3028 RMK A01 T10171053  RH  077%=      5-min Rain = 0
KMES 110410Z 00000KT M02/M06 A3028 RMK A01 T10231058  RH  077%=      5-min Rain = 0
KMES 110415Z 00000KT M03/M06 A3028 RMK A01 T10271060  RH  078%=      5-min Rain = 0
KMES 110420Z 22000KT M03/M06 A3028 RMK A01 T10301062  RH  079%=      5-min Rain = 0
KMES 110425Z 00000KT M03/M06 A3028 RMK A01 T10341064  RH  080%=      5-min Rain = 0
KMES 110430Z 00000KT M04/M07 A3028 RMK A01 T10371065  RH  081%=      5-min Rain = 0
KMES 110435Z 00000KT M04/M06 A3028 RMK A01 T10371061  RH  083%=      5-min Rain = 0
KMES 110440Z 00000KT M03/M06 A3028 RMK A01 T10341057  RH  084%=      5-min Rain = 0
KMES 110445Z 00000KT M03/M06 A3028 RMK A01 T10331057  RH  084%=      5-min Rain = 0
KMES 110450Z 00000KT M03/M05 A3028 RMK A01 T10291052  RH  085%=      5-min Rain = 0
KMES 110455Z 00000KT M03/M05 A3028 RMK A01 T10291054  RH  083%=      5-min Rain = 0
KMES 110500Z 00000KT M04/M06 A3028 RMK A01 T10361061  RH  083%=      5-min Rain = 0
KMES 110505Z 00000KT M04/M06 A3028 RMK A01 T10381062  RH  084%=      5-min Rain = 0
KMES 110510Z 34000KT M04/M06 A3028 RMK A01 T10391061  RH  085%=      5-min Rain = 0
KMES 110515Z 34001KT M04/M06 A3028 RMK A01 T10361056  RH  086%=      5-min Rain = 0
KMES 110520Z 33001KT M03/M05 A3028 RMK A01 T10331054  RH  086%=      5-min Rain = 0
KMES 110525Z 33003KT M04/M06 A3028 RMK A01 T10351057  RH  085%=      5-min Rain = 0
KMES 110530Z 32004KT M04/M06 A3028 RMK A01 T10391060  RH  085%=      5-min Rain = 0
KMES 110535Z 32004KT M03/M05 A3028 RMK A01 T10341051  RH  089%=      5-min Rain = 0
KMES 110540Z 32004KT M03/M04 A3027 RMK A01 T10261044  RH  088%=      5-min Rain = 0
KMES 110545Z 33004KT M03/M04 A3027 RMK A01 T10261044  RH  088%=      5-min Rain = 0
KMES 110550Z 32003KT M03/M04 A3027 RMK A01 T10251042  RH  088%=      5-min Rain = 0
KMES 110555Z 34003KT M03/M04 A3027 RMK A01 T10251043  RH  088%=      5-min Rain = 0

Page generated in 0.0087 seconds.